Time;durP1;ratioP1;P1;durP2;ratioP2;P2;SDS_P1;SDS_P2;PMS_P1;PMS_P2;Temp;Humidity;BMP_temperature;BMP_pressure;BME280_temperature;BME280_humidity;BME280_pressure;Samples;Min_cycle;Max_cycle;Signal;HPM_P1;HPM_P2
2021/09/16 00:00:52;;;;;;;1.40;1.30;;;;;;;;;;5113490;28;20462;-70
2021/09/16 00:03:19;;;;;;;2.30;1.30;;;;;;;;;;5113461;28;20453;-70
2021/09/16 00:05:46;;;;;;;1.93;1.40;;;;;;;;;;5115621;28;20496;-70
2021/09/16 00:08:13;;;;;;;6.30;1.90;;;;;;;;;;5117349;28;20443;-71
2021/09/16 00:10:42;;;;;;;4.70;1.70;;;;;;;;;;5116795;28;20477;-70
2021/09/16 00:13:09;;;;;;;2.40;1.40;;;;;;;;;;5117024;28;20431;-71
2021/09/16 00:15:36;;;;;;;4.17;1.40;;;;;;;;;;5116607;28;20918;-71
2021/09/16 00:18:04;;;;;;;3.30;1.40;;;;;;;;;;5116688;28;20455;-70
2021/09/16 00:20:32;;;;;;;8.73;1.60;;;;;;;;;;5117026;28;20474;-71
2021/09/16 00:22:59;;;;;;;3.00;1.30;;;;;;;;;;5116576;28;20471;-70
2021/09/16 00:25:27;;;;;;;5.33;1.50;;;;;;;;;;5117338;28;20860;-70
2021/09/16 00:27:55;;;;;;;3.23;1.50;;;;;;;;;;5116829;28;20441;-70
2021/09/16 00:30:22;;;;;;;4.23;1.40;;;;;;;;;;5116371;28;20441;-70
2021/09/16 00:32:50;;;;;;;3.60;1.83;;;;;;;;;;5116674;28;20444;-71
2021/09/16 00:35:17;;;;;;;2.70;1.67;;;;;;;;;;5117010;28;20942;-71
2021/09/16 00:37:44;;;;;;;4.00;1.33;;;;;;;;;;5116620;28;20466;-71
2021/09/16 00:40:12;;;;;;;2.63;1.50;;;;;;;;;;5116484;28;20471;-71
2021/09/16 00:42:39;;;;;;;1.83;1.47;;;;;;;;;;5116502;28;20466;-71
2021/09/16 00:45:08;;;;;;;5.40;1.40;;;;;;;;;;5116594;28;20477;-71
2021/09/16 00:47:36;;;;;;;5.13;1.57;;;;;;;;;;5116086;28;20442;-71
2021/09/16 00:50:03;;;;;;;1.57;1.47;;;;;;;;;;5116655;28;20446;-71
2021/09/16 00:52:30;;;;;;;2.50;1.30;;;;;;;;;;5116025;28;20441;-71
2021/09/16 00:54:58;;;;;;;2.33;1.27;;;;;;;;;;5115973;28;20522;-71
2021/09/16 00:57:26;;;;;;;3.03;1.80;;;;;;;;;;5116252;28;20766;-71
2021/09/16 00:59:54;;;;;;;3.80;1.80;;;;;;;;;;5116070;28;20476;-71
2021/09/16 01:02:23;;;;;;;2.93;1.60;;;;;;;;;;5116401;28;20526;-71
2021/09/16 01:04:50;;;;;;;1.10;1.10;;;;;;;;;;5116058;28;20436;-71
2021/09/16 01:07:18;;;;;;;2.17;1.20;;;;;;;;;;5116307;28;20446;-71
2021/09/16 01:09:45;;;;;;;2.70;1.20;;;;;;;;;;5115966;28;20444;-71
2021/09/16 01:12:13;;;;;;;2.03;1.23;;;;;;;;;;5115645;28;20952;-71
2021/09/16 01:14:40;;;;;;;2.67;1.40;;;;;;;;;;5116198;28;20923;-71
2021/09/16 01:17:07;;;;;;;3.87;1.57;;;;;;;;;;5115140;28;20455;-71
2021/09/16 01:19:36;;;;;;;1.43;1.33;;;;;;;;;;5116524;28;20474;-71
2021/09/16 01:22:03;;;;;;;4.50;1.50;;;;;;;;;;5115471;28;20439;-71
2021/09/16 01:24:32;;;;;;;3.83;1.30;;;;;;;;;;5115690;28;20805;-71
2021/09/16 01:26:59;;;;;;;2.93;1.60;;;;;;;;;;5115631;28;20439;-71
2021/09/16 01:29:26;;;;;;;4.93;2.20;;;;;;;;;;5115251;28;20456;-71
2021/09/16 01:31:53;;;;;;;3.00;1.30;;;;;;;;;;5115204;28;20446;-71
2021/09/16 01:34:21;;;;;;;3.03;1.20;;;;;;;;;;5115190;28;20447;-71
2021/09/16 01:36:48;;;;;;;1.93;1.30;;;;;;;;;;5115651;28;20440;-71
2021/09/16 01:39:17;;;;;;;3.73;1.83;;;;;;;;;;5114988;28;20558;-71
2021/09/16 01:41:45;;;;;;;2.70;1.60;;;;;;;;;;5115013;28;20451;-71
2021/09/16 01:44:13;;;;;;;2.53;1.60;;;;;;;;;;5115142;28;20472;-71
2021/09/16 01:46:40;;;;;;;5.30;1.83;;;;;;;;;;5115572;28;20473;-71
2021/09/16 01:49:07;;;;;;;2.80;1.47;;;;;;;;;;5116000;28;20899;-71
2021/09/16 01:51:35;;;;;;;1.73;1.60;;;;;;;;;;5115657;28;20441;-71
2021/09/16 01:54:03;;;;;;;2.70;1.60;;;;;;;;;;5115088;28;20445;-71
2021/09/16 01:56:30;;;;;;;3.10;1.30;;;;;;;;;;5114765;28;20817;-70
2021/09/16 01:58:58;;;;;;;1.43;1.33;;;;;;;;;;5114926;28;20526;-70
2021/09/16 02:01:26;;;;;;;2.10;1.60;;;;;;;;;;5114592;28;20458;-70
2021/09/16 02:03:53;;;;;;;7.27;1.80;;;;;;;;;;5114929;28;20435;-70
2021/09/16 02:06:21;;;;;;;2.40;1.60;;;;;;;;;;5114891;28;20535;-71
2021/09/16 02:08:48;;;;;;;2.07;1.23;;;;;;;;;;5115143;28;20463;-71
2021/09/16 02:11:15;;;;;;;8.63;1.73;;;;;;;;;;5115357;28;20439;-71
2021/09/16 02:13:42;;;;;;;3.77;1.50;;;;;;;;;;5114717;28;20443;-71
2021/09/16 02:16:11;;;;;;;3.57;1.53;;;;;;;;;;5114709;28;20443;-70
2021/09/16 02:18:38;;;;;;;2.90;1.60;;;;;;;;;;5114667;28;20444;-71
2021/09/16 02:21:05;;;;;;;8.13;2.77;;;;;;;;;;5114534;28;20486;-71
2021/09/16 02:23:33;;;;;;;1.30;1.20;;;;;;;;;;5114660;28;20958;-71
2021/09/16 02:26:00;;;;;;;3.87;1.70;;;;;;;;;;5114520;28;20444;-71
2021/09/16 02:28:27;;;;;;;5.63;1.77;;;;;;;;;;5113810;28;20446;-70
2021/09/16 02:30:54;;;;;;;4.90;2.00;;;;;;;;;;5114117;28;20452;-70
2021/09/16 02:33:23;;;;;;;4.23;1.77;;;;;;;;;;5114114;28;20441;-71
2021/09/16 02:35:52;;;;;;;6.30;2.37;;;;;;;;;;5114077;28;20929;-71
2021/09/16 02:38:20;;;;;;;4.40;1.70;;;;;;;;;;5114565;28;20450;-71
2021/09/16 02:40:47;;;;;;;2.00;1.77;;;;;;;;;;5114394;28;20575;-70
2021/09/16 02:43:14;;;;;;;4.00;1.67;;;;;;;;;;5113960;28;20450;-70
2021/09/16 02:45:41;;;;;;;2.47;2.00;;;;;;;;;;5114419;28;20970;-70
2021/09/16 02:48:10;;;;;;;4.10;1.77;;;;;;;;;;5114169;28;20487;-71
2021/09/16 02:50:38;;;;;;;3.60;1.83;;;;;;;;;;5113839;28;20441;-71
2021/09/16 02:53:05;;;;;;;2.53;1.60;;;;;;;;;;5114256;28;20448;-71
2021/09/16 02:55:33;;;;;;;3.13;2.03;;;;;;;;;;5113788;28;20449;-71
2021/09/16 02:58:00;;;;;;;2.50;1.93;;;;;;;;;;5114768;28;20520;-71
2021/09/16 03:00:27;;;;;;;7.03;2.87;;;;;;;;;;5113981;28;20479;-70
2021/09/16 03:02:54;;;;;;;3.33;2.30;;;;;;;;;;5113740;28;20522;-71
2021/09/16 03:05:21;;;;;;;5.23;2.43;;;;;;;;;;5113656;28;20928;-70
2021/09/16 03:07:50;;;;;;;4.33;2.40;;;;;;;;;;5113650;28;20446;-70
2021/09/16 03:10:17;;;;;;;3.33;2.23;;;;;;;;;;5113953;28;20436;-70
2021/09/16 03:12:44;;;;;;;3.40;2.20;;;;;;;;;;5114110;28;20797;-71
2021/09/16 03:15:12;;;;;;;2.53;2.30;;;;;;;;;;5113621;28;20457;-70
2021/09/16 03:17:39;;;;;;;3.03;2.50;;;;;;;;;;5113557;28;20438;-70
2021/09/16 03:20:07;;;;;;;6.33;2.47;;;;;;;;;;5113835;28;20483;-70
2021/09/16 03:22:34;;;;;;;2.90;2.30;;;;;;;;;;5113889;28;20440;-70
2021/09/16 03:25:03;;;;;;;11.40;2.77;;;;;;;;;;5113804;28;20432;-70
2021/09/16 03:27:30;;;;;;;8.63;3.33;;;;;;;;;;5113828;28;20448;-70
2021/09/16 03:29:57;;;;;;;2.90;2.53;;;;;;;;;;5114380;28;20447;-71
2021/09/16 03:32:24;;;;;;;5.90;3.10;;;;;;;;;;5114246;28;20443;-70
2021/09/16 03:34:52;;;;;;;8.23;3.40;;;;;;;;;;5113408;28;20527;-70
2021/09/16 03:37:19;;;;;;;4.37;2.77;;;;;;;;;;5113408;28;20955;-71
2021/09/16 03:39:46;;;;;;;7.03;4.03;;;;;;;;;;5115495;28;20483;-70
2021/09/16 03:42:15;;;;;;;7.03;3.07;;;;;;;;;;5117373;28;20951;-70
2021/09/16 03:44:42;;;;;;;3.97;2.80;;;;;;;;;;5117492;28;20470;-70
2021/09/16 03:47:10;;;;;;;3.40;3.10;;;;;;;;;;5117284;28;20435;-71
2021/09/16 03:49:39;;;;;;;4.70;3.13;;;;;;;;;;5117379;28;20959;-71
2021/09/16 03:52:06;;;;;;;4.60;3.30;;;;;;;;;;5117439;28;20805;-70
2021/09/16 03:54:33;;;;;;;4.60;3.30;;;;;;;;;;5117462;28;20436;-70
2021/09/16 03:57:01;;;;;;;8.93;3.40;;;;;;;;;;5117420;28;20443;-71
2021/09/16 03:59:29;;;;;;;3.77;2.73;;;;;;;;;;5118066;28;20438;-70
2021/09/16 04:01:56;;;;;;;4.50;3.30;;;;;;;;;;5117250;28;20483;-70
2021/09/16 04:04:24;;;;;;;9.53;4.20;;;;;;;;;;5117348;28;20470;-70
2021/09/16 04:06:51;;;;;;;6.97;3.50;;;;;;;;;;5116839;28;20440;-70
2021/09/16 04:09:18;;;;;;;11.00;3.57;;;;;;;;;;5116844;28;20440;-70
2021/09/16 04:11:45;;;;;;;6.90;4.43;;;;;;;;;;5116793;28;20928;-70
2021/09/16 04:14:12;;;;;;;4.93;3.80;;;;;;;;;;5116923;28;20449;-70
2021/09/16 04:16:41;;;;;;;6.63;3.60;;;;;;;;;;5116705;28;20946;-70
2021/09/16 04:19:08;;;;;;;5.27;3.77;;;;;;;;;;5116657;28;20476;-70
2021/09/16 04:21:35;;;;;;;4.13;3.73;;;;;;;;;;5116553;28;20474;-69
2021/09/16 04:24:03;;;;;;;4.47;4.03;;;;;;;;;;5116875;28;20439;-70
2021/09/16 04:26:30;;;;;;;3.90;3.60;;;;;;;;;;5119761;27;20435;-70
2021/09/16 04:28:57;;;;;;;7.03;4.10;;;;;;;;;;5137320;27;20507;-69
2021/09/16 04:31:24;;;;;;;5.93;4.30;;;;;;;;;;5137283;27;20443;-70
2021/09/16 04:33:53;;;;;;;9.03;4.43;;;;;;;;;;5136890;27;20441;-69
2021/09/16 04:36:20;;;;;;;6.20;4.03;;;;;;;;;;5137905;27;20462;-70
2021/09/16 04:38:47;;;;;;;6.30;3.77;;;;;;;;;;5137356;27;20438;-69
2021/09/16 04:41:14;;;;;;;9.90;4.20;;;;;;;;;;5137019;27;20573;-69
2021/09/16 04:43:42;;;;;;;13.60;3.70;;;;;;;;;;5136447;27;20524;-70
2021/09/16 04:46:09;;;;;;;8.13;4.60;;;;;;;;;;5136769;27;20491;-70
2021/09/16 04:48:36;;;;;;;5.70;3.90;;;;;;;;;;5137055;27;20442;-70
2021/09/16 04:51:05;;;;;;;4.30;3.70;;;;;;;;;;5135564;27;20452;-70
2021/09/16 04:53:32;;;;;;;4.63;3.60;;;;;;;;;;5135747;27;20435;-70
2021/09/16 04:55:59;;;;;;;7.40;4.20;;;;;;;;;;5135714;27;20444;-70
2021/09/16 04:58:27;;;;;;;7.03;4.70;;;;;;;;;;5136189;27;20478;-70
2021/09/16 05:00:54;;;;;;;5.30;3.90;;;;;;;;;;5136330;27;20479;-70
2021/09/16 05:03:21;;;;;;;6.67;4.43;;;;;;;;;;5135855;27;20443;-70
2021/09/16 05:05:48;;;;;;;10.73;4.73;;;;;;;;;;5136655;27;20490;-70
2021/09/16 05:08:17;;;;;;;5.97;3.73;;;;;;;;;;5136610;27;20667;-70
2021/09/16 05:10:44;;;;;;;7.70;4.33;;;;;;;;;;5136471;27;20449;-70
2021/09/16 05:13:11;;;;;;;5.20;4.30;;;;;;;;;;5136471;27;20438;-70
2021/09/16 05:15:38;;;;;;;6.30;4.37;;;;;;;;;;5136317;27;20945;-70
2021/09/16 05:18:07;;;;;;;5.93;5.00;;;;;;;;;;5136242;27;20767;-69
2021/09/16 05:20:34;;;;;;;5.40;3.57;;;;;;;;;;5136609;27;20511;-70
2021/09/16 05:23:01;;;;;;;6.17;4.10;;;;;;;;;;5135187;27;20438;-69
2021/09/16 05:25:30;;;;;;;10.03;4.43;;;;;;;;;;5134795;27;20434;-70
2021/09/16 05:27:58;;;;;;;13.27;6.10;;;;;;;;;;5135307;27;20437;-69
2021/09/16 05:30:25;;;;;;;18.70;5.70;;;;;;;;;;5135812;27;20443;-70
2021/09/16 05:32:52;;;;;;;10.40;5.00;;;;;;;;;;5135558;27;20442;-71
2021/09/16 05:35:19;;;;;;;13.60;4.40;;;;;;;;;;5135318;27;20957;-71
2021/09/16 05:37:46;;;;;;;29.00;6.33;;;;;;;;;;5136177;27;20536;-71
2021/09/16 05:40:19;;;;;;;12.43;6.03;;;;;;;;;;5135223;27;21011;-72
2021/09/16 05:42:49;;;;;;;6.97;4.33;;;;;;;;;;5136215;27;20423;-71
2021/09/16 05:45:16;;;;;;;6.93;4.00;;;;;;;;;;5135128;27;20484;-70
2021/09/16 05:47:43;;;;;;;6.50;5.00;;;;;;;;;;5135528;27;20434;-71
2021/09/16 05:50:11;;;;;;;8.03;4.67;;;;;;;;;;5135718;27;20460;-71
2021/09/16 05:52:38;;;;;;;7.20;4.37;;;;;;;;;;5135450;27;20437;-71
2021/09/16 05:55:05;;;;;;;7.00;4.13;;;;;;;;;;5135359;27;20434;-71
2021/09/16 05:57:33;;;;;;;8.20;4.57;;;;;;;;;;5135046;27;20520;-70
2021/09/16 06:00:01;;;;;;;5.53;4.57;;;;;;;;;;5135560;27;20446;-71
2021/09/16 06:02:29;;;;;;;5.73;4.47;;;;;;;;;;5133756;27;20475;-70
2021/09/16 06:04:56;;;;;;;9.77;4.90;;;;;;;;;;5135083;27;20915;-70
2021/09/16 06:07:23;;;;;;;9.77;5.07;;;;;;;;;;5135204;27;20438;-71
2021/09/16 06:09:50;;;;;;;7.20;5.90;;;;;;;;;;5134973;27;20444;-71
2021/09/16 06:12:17;;;;;;;8.50;4.50;;;;;;;;;;5134933;27;20937;-70
2021/09/16 06:14:44;;;;;;;13.03;5.43;;;;;;;;;;5135400;27;20765;-71
2021/09/16 06:17:13;;;;;;;9.37;5.20;;;;;;;;;;5135207;27;20438;-70
2021/09/16 06:19:40;;;;;;;9.20;4.80;;;;;;;;;;5135102;27;20446;-70
2021/09/16 06:22:07;;;;;;;8.53;4.97;;;;;;;;;;5135259;27;20474;-70
2021/09/16 06:24:35;;;;;;;12.30;5.57;;;;;;;;;;5135124;27;20441;-71
2021/09/16 06:27:02;;;;;;;7.43;5.10;;;;;;;;;;5134937;27;20442;-70
2021/09/16 06:29:29;;;;;;;7.33;5.40;;;;;;;;;;5134870;27;20449;-71
2021/09/16 06:31:56;;;;;;;11.90;6.03;;;;;;;;;;5134758;27;20446;-71
2021/09/16 06:34:25;;;;;;;11.20;5.83;;;;;;;;;;5134420;27;20526;-71
2021/09/16 06:36:53;;;;;;;22.83;8.40;;;;;;;;;;5134776;27;20574;-70
2021/09/16 06:39:20;;;;;;;15.63;6.00;;;;;;;;;;5134662;27;20788;-71
2021/09/16 06:41:47;;;;;;;14.27;6.97;;;;;;;;;;5134620;27;20478;-71
2021/09/16 06:44:14;;;;;;;13.53;6.30;;;;;;;;;;5134296;27;20461;-73
2021/09/16 06:46:41;;;;;;;17.93;8.37;;;;;;;;;;5134362;27;20545;-75
2021/09/16 06:49:09;;;;;;;19.03;9.50;;;;;;;;;;5134642;27;20435;-76
2021/09/16 06:51:37;;;;;;;26.70;9.90;;;;;;;;;;5134782;27;20539;-76
2021/09/16 06:54:04;;;;;;;17.40;8.33;;;;;;;;;;5134183;27;20948;-76
2021/09/16 06:56:31;;;;;;;13.27;9.60;;;;;;;;;;5134259;27;20445;-75
2021/09/16 06:58:59;;;;;;;15.80;9.37;;;;;;;;;;5134917;27;20488;-77
2021/09/16 07:01:27;;;;;;;12.33;8.53;;;;;;;;;;5134146;27;20484;-76
2021/09/16 07:03:55;;;;;;;15.50;10.10;;;;;;;;;;5134508;28;20436;-77
2021/09/16 07:06:23;;;;;;;12.93;9.10;;;;;;;;;;5134420;28;20449;-77
2021/09/16 07:08:52;;;;;;;11.70;7.80;;;;;;;;;;5134440;28;20844;-76
2021/09/16 07:11:19;;;;;;;13.13;9.83;;;;;;;;;;5134035;28;20450;-77
2021/09/16 07:13:47;;;;;;;12.77;10.17;;;;;;;;;;5134813;27;20439;-77
2021/09/16 07:16:14;;;;;;;13.60;9.97;;;;;;;;;;5138323;27;20447;-76
2021/09/16 07:18:42;;;;;;;15.43;9.40;;;;;;;;;;5138262;27;20978;-75
2021/09/16 07:21:09;;;;;;;12.40;9.67;;;;;;;;;;5138965;27;20823;-75
2021/09/16 07:23:36;;;;;;;11.47;8.97;;;;;;;;;;5138550;27;20464;-77
2021/09/16 07:26:05;;;;;;;14.67;9.67;;;;;;;;;;5138494;27;20452;-77
2021/09/16 07:28:35;;;;;;;14.60;10.93;;;;;;;;;;5138126;27;20434;-77
2021/09/16 07:31:03;;;;;;;17.73;9.23;;;;;;;;;;5138509;27;20915;-78
2021/09/16 07:33:30;;;;;;;14.80;10.83;;;;;;;;;;5138337;27;20523;-78
2021/09/16 07:35:57;;;;;;;15.17;11.00;;;;;;;;;;5138030;27;20442;-78
2021/09/16 07:38:24;;;;;;;17.07;11.70;;;;;;;;;;5137888;27;20883;-78
2021/09/16 07:40:51;;;;;;;13.70;10.67;;;;;;;;;;5138148;27;20440;-79
2021/09/16 07:43:20;;;;;;;22.50;11.53;;;;;;;;;;5138157;27;20448;-79
2021/09/16 07:45:47;;;;;;;17.67;10.93;;;;;;;;;;5138442;27;20478;-78
2021/09/16 07:48:14;;;;;;;14.50;10.80;;;;;;;;;;5138065;27;20442;-78
2021/09/16 07:50:41;;;;;;;15.93;11.60;;;;;;;;;;5138538;27;20780;-79
2021/09/16 07:53:10;;;;;;;15.20;11.40;;;;;;;;;;5137896;27;20452;-79
2021/09/16 07:55:37;;;;;;;17.47;10.80;;;;;;;;;;5138590;27;20485;-79
2021/09/16 07:58:04;;;;;;;16.50;11.80;;;;;;;;;;5137567;27;20450;-79
2021/09/16 08:00:33;;;;;;;13.47;10.83;;;;;;;;;;5137567;27;21022;-79
2021/09/16 08:03:00;;;;;;;15.70;11.67;;;;;;;;;;5137574;27;20482;-78
2021/09/16 08:05:27;;;;;;;17.43;10.90;;;;;;;;;;5138229;27;20524;-79
2021/09/16 08:07:55;;;;;;;14.73;10.80;;;;;;;;;;5138438;27;20448;-80
2021/09/16 08:10:23;;;;;;;12.73;11.23;;;;;;;;;;5137286;27;20481;-79
2021/09/16 08:12:50;;;;;;;18.93;10.67;;;;;;;;;;5137469;27;20450;-79
2021/09/16 08:15:18;;;;;;;13.47;9.67;;;;;;;;;;5137742;27;20549;-80
2021/09/16 08:17:46;;;;;;;13.80;9.80;;;;;;;;;;5137498;27;20450;-80
2021/09/16 08:20:15;;;;;;;11.70;8.37;;;;;;;;;;5137118;27;20924;-80
2021/09/16 08:22:44;;;;;;;10.27;8.30;;;;;;;;;;5136881;27;20471;-80
2021/09/16 08:25:12;;;;;;;9.80;8.80;;;;;;;;;;5137395;27;20439;-79
2021/09/16 08:27:39;;;;;;;10.27;9.20;;;;;;;;;;5136572;27;20988;-80
2021/09/16 08:30:07;;;;;;;11.83;8.30;;;;;;;;;;5136976;27;20445;-80
2021/09/16 08:32:34;;;;;;;12.83;8.27;;;;;;;;;;5136867;27;20438;-80
2021/09/16 08:35:03;;;;;;;8.90;7.47;;;;;;;;;;5137017;27;20539;-80
2021/09/16 08:37:30;;;;;;;14.03;8.27;;;;;;;;;;5137569;27;20437;-80
2021/09/16 08:39:57;;;;;;;8.70;7.80;;;;;;;;;;5136725;27;20451;-80
2021/09/16 08:42:25;;;;;;;11.60;8.53;;;;;;;;;;5136992;27;20810;-79
2021/09/16 08:44:54;;;;;;;10.87;9.77;;;;;;;;;;5137081;27;20471;-80
2021/09/16 08:47:21;;;;;;;8.90;8.00;;;;;;;;;;5137201;27;20445;-80
2021/09/16 08:49:48;;;;;;;14.87;8.70;;;;;;;;;;5136511;27;20489;-80
2021/09/16 08:52:18;;;;;;;12.50;8.90;;;;;;;;;;5137109;27;20443;-80
2021/09/16 08:54:45;;;;;;;10.70;8.30;;;;;;;;;;5137400;27;20457;-80
2021/09/16 08:57:15;;;;;;;10.17;7.60;;;;;;;;;;5136694;27;20452;-79
2021/09/16 08:59:43;;;;;;;13.43;8.20;;;;;;;;;;5137069;27;20445;-79
2021/09/16 09:02:11;;;;;;;10.30;7.50;;;;;;;;;;5136734;27;20488;-78
2021/09/16 09:04:38;;;;;;;7.50;6.80;;;;;;;;;;5136407;27;20465;-79
2021/09/16 09:07:06;;;;;;;7.50;6.80;;;;;;;;;;5136370;27;20430;-78
2021/09/16 09:09:34;;;;;;;9.53;7.93;;;;;;;;;;5136161;27;20928;-78
2021/09/16 09:12:02;;;;;;;21.90;8.30;;;;;;;;;;5135995;27;20453;-78
2021/09/16 09:14:30;;;;;;;12.60;7.10;;;;;;;;;;5135852;27;20455;-78
2021/09/16 09:16:58;;;;;;;15.73;6.77;;;;;;;;;;5136144;27;20438;-78
2021/09/16 09:19:28;;;;;;;7.30;5.37;;;;;;;;;;5136054;27;20438;-78
2021/09/16 09:21:57;;;;;;;7.77;5.23;;;;;;;;;;5135862;27;20523;-78
2021/09/16 09:24:36;;;;;;;6.73;4.90;;;;;;;;;;5136027;27;20434;-77
2021/09/16 09:27:20;;;;;;;8.80;5.77;;;;;;;;;;5135812;27;20433;-77
2021/09/16 09:30:01;;;;;;;5.37;4.87;;;;;;;;;;5135823;27;20424;-77
2021/09/16 09:32:44;;;;;;;5.70;5.20;;;;;;;;;;5136453;27;20449;-76
2021/09/16 09:35:24;;;;;;;9.20;5.27;;;;;;;;;;5135466;27;20916;-75
2021/09/16 09:37:51;;;;;;;5.70;4.70;;;;;;;;;;5135619;27;20420;-75
2021/09/16 09:40:25;;;;;;;13.00;6.27;;;;;;;;;;5135707;27;20447;-74
2021/09/16 09:42:52;;;;;;;10.80;4.80;;;;;;;;;;5135902;27;20457;-74
2021/09/16 09:45:20;;;;;;;6.57;5.07;;;;;;;;;;5135553;27;20572;-74
2021/09/16 09:47:49;;;;;;;5.80;5.20;;;;;;;;;;5135786;27;20442;-74
2021/09/16 09:50:20;;;;;;;6.77;5.40;;;;;;;;;;5135729;27;20775;-74
2021/09/16 09:52:48;;;;;;;6.83;5.17;;;;;;;;;;5135068;27;20455;-73
2021/09/16 09:55:15;;;;;;;9.00;5.13;;;;;;;;;;5134985;27;20455;-73
2021/09/16 09:57:44;;;;;;;10.50;4.73;;;;;;;;;;5135404;27;20446;-73
2021/09/16 10:00:12;;;;;;;6.77;4.87;;;;;;;;;;5135914;27;20559;-73
2021/09/16 10:02:44;;;;;;;6.87;5.30;;;;;;;;;;5134748;27;20978;-73
2021/09/16 10:05:20;;;;;;;11.57;5.17;;;;;;;;;;5135507;27;20449;-73
2021/09/16 10:07:47;;;;;;;6.90;5.03;;;;;;;;;;5134806;27;20432;-73
2021/09/16 10:10:16;;;;;;;5.40;4.40;;;;;;;;;;5134794;27;21023;-73
2021/09/16 10:12:45;;;;;;;8.27;4.53;;;;;;;;;;5134607;27;20453;-73
2021/09/16 10:15:15;;;;;;;4.43;3.90;;;;;;;;;;5134968;27;20457;-73
2021/09/16 10:17:42;;;;;;;6.30;5.20;;;;;;;;;;5134937;27;20489;-72
2021/09/16 10:20:10;;;;;;;5.60;4.67;;;;;;;;;;5134649;27;20444;-72
2021/09/16 10:22:41;;;;;;;7.97;5.50;;;;;;;;;;5134892;27;20903;-73
2021/09/16 10:25:09;;;;;;;8.20;5.13;;;;;;;;;;5134930;27;20438;-72
2021/09/16 10:27:38;;;;;;;9.63;4.70;;;;;;;;;;5134885;27;20450;-73
2021/09/16 10:30:20;;;;;;;6.47;3.80;;;;;;;;;;5134612;27;20442;-73
2021/09/16 10:32:59;;;;;;;7.83;4.70;;;;;;;;;;5114363;27;20453;-73
2021/09/16 10:35:26;;;;;;;14.40;4.40;;;;;;;;;;5134867;27;20509;-73
2021/09/16 10:37:53;;;;;;;12.47;5.63;;;;;;;;;;5134345;27;20475;-73
2021/09/16 10:40:22;;;;;;;6.20;4.80;;;;;;;;;;5134861;27;20448;-73
2021/09/16 10:42:51;;;;;;;8.33;4.30;;;;;;;;;;5134516;27;20819;-73
2021/09/16 10:45:27;;;;;;;5.73;4.10;;;;;;;;;;5134524;27;20478;-73
2021/09/16 10:48:13;;;;;;;5.07;4.63;;;;;;;;;;5134863;27;20418;-73
2021/09/16 10:50:48;;;;;;;4.70;4.30;;;;;;;;;;5133918;27;20445;-72
2021/09/16 10:53:45;;;;;;;4.13;3.77;;;;;;;;;;5134700;27;20428;-72
2021/09/16 10:56:31;;;;;;;7.27;4.40;;;;;;;;;;5031112;28;20420;-73
2021/09/16 10:58:59;;;;;;;4.97;3.90;;;;;;;;;;5123179;27;20447;-73
2021/09/16 11:01:41;;;;;;;7.90;3.37;;;;;;;;;;5134557;27;20532;-73
2021/09/16 11:04:08;;;;;;;7.90;3.67;;;;;;;;;;5133667;27;20530;-72
2021/09/16 11:06:44;;;;;;;9.17;3.83;;;;;;;;;;5134582;28;20435;-73
2021/09/16 11:09:12;;;;;;;4.53;3.10;;;;;;;;;;5134201;28;20439;-73
2021/09/16 11:11:56;;;;;;;6.40;3.40;;;;;;;;;;5134012;28;20444;-73
2021/09/16 11:14:30;;;;;;;6.53;3.70;;;;;;;;;;5134141;28;20803;-73
2021/09/16 11:16:58;;;;;;;3.30;3.00;;;;;;;;;;5134694;28;20462;-73
2021/09/16 11:19:25;;;;;;;6.33;2.90;;;;;;;;;;5134245;28;20462;-73
2021/09/16 11:22:05;;;;;;;7.27;2.47;;;;;;;;;;5134291;28;20445;-73
2021/09/16 11:24:38;;;;;;;4.90;2.97;;;;;;;;;;5134014;28;20418;-73
2021/09/16 11:27:06;;;;;;;2.50;2.30;;;;;;;;;;5133924;28;20428;-73
2021/09/16 11:29:40;;;;;;;2.83;2.53;;;;;;;;;;5134226;28;20801;-73
2021/09/16 11:32:08;;;;;;;2.50;2.20;;;;;;;;;;5134376;28;20448;-73
2021/09/16 11:34:35;;;;;;;3.00;1.90;;;;;;;;;;5134168;28;20438;-73
2021/09/16 11:37:08;;;;;;;2.50;2.30;;;;;;;;;;5133862;28;20935;-73
2021/09/16 11:39:36;;;;;;;6.77;2.63;;;;;;;;;;5134126;28;20436;-73
2021/09/16 11:42:13;;;;;;;4.03;2.07;;;;;;;;;;5133577;28;20452;-73
2021/09/16 11:44:55;;;;;;;2.37;2.03;;;;;;;;;;5133408;28;21002;-73
2021/09/16 11:47:22;;;;;;;3.77;2.00;;;;;;;;;;5134220;28;20941;-73
2021/09/16 11:49:49;;;;;;;4.13;2.20;;;;;;;;;;5134080;28;20446;-73
2021/09/16 11:52:20;;;;;;;7.57;2.30;;;;;;;;;;5134012;28;20442;-73
2021/09/16 11:55:02;;;;;;;5.27;2.00;;;;;;;;;;5134147;28;20433;-73
2021/09/16 11:57:30;;;;;;;3.63;1.60;;;;;;;;;;5134319;28;20507;-72
2021/09/16 11:59:57;;;;;;;1.93;1.77;;;;;;;;;;5134691;27;21014;-72
2021/09/16 12:02:24;;;;;;;4.00;1.60;;;;;;;;;;5137974;27;20476;-73
2021/09/16 12:04:51;;;;;;;3.07;1.67;;;;;;;;;;5137915;27;20529;-73
2021/09/16 12:07:20;;;;;;;7.23;1.80;;;;;;;;;;5137743;27;20487;-73
2021/09/16 12:09:47;;;;;;;4.10;1.90;;;;;;;;;;5137670;27;20790;-73
2021/09/16 12:12:14;;;;;;;3.63;1.50;;;;;;;;;;5137715;27;20438;-73
2021/09/16 12:14:49;;;;;;;2.23;1.83;;;;;;;;;;5137719;27;20447;-72
2021/09/16 12:17:16;;;;;;;3.27;1.67;;;;;;;;;;5138247;27;20952;-72
2021/09/16 12:19:43;;;;;;;1.80;1.50;;;;;;;;;;5138292;27;20452;-73
2021/09/16 12:22:11;;;;;;;4.50;1.97;;;;;;;;;;5137512;27;20440;-73
2021/09/16 12:24:39;;;;;;;5.33;2.00;;;;;;;;;;5137076;27;20528;-73
2021/09/16 12:27:10;;;;;;;2.43;1.50;;;;;;;;;;5137499;27;20448;-73
2021/09/16 12:29:38;;;;;;;4.47;2.07;;;;;;;;;;5137081;27;20506;-73
2021/09/16 12:32:07;;;;;;;2.63;2.13;;;;;;;;;;5137303;27;20456;-73
2021/09/16 12:34:35;;;;;;;4.33;2.20;;;;;;;;;;5137286;27;20489;-73
2021/09/16 12:37:03;;;;;;;3.30;2.10;;;;;;;;;;5137196;27;20450;-73
2021/09/16 12:39:31;;;;;;;3.37;2.20;;;;;;;;;;5136840;27;20427;-73
2021/09/16 12:42:01;;;;;;;3.37;2.10;;;;;;;;;;5136751;27;20443;-73
2021/09/16 12:44:28;;;;;;;2.50;2.10;;;;;;;;;;5137128;27;20587;-73
2021/09/16 12:46:57;;;;;;;5.63;2.27;;;;;;;;;;5137059;27;20440;-73
2021/09/16 12:49:29;;;;;;;2.53;2.00;;;;;;;;;;5137091;27;20848;-73
2021/09/16 12:51:57;;;;;;;1.60;1.50;;;;;;;;;;5137247;27;20763;-73
2021/09/16 12:54:25;;;;;;;2.27;2.07;;;;;;;;;;5137205;27;20467;-73
2021/09/16 12:56:52;;;;;;;3.50;1.90;;;;;;;;;;5136481;27;20523;-73
2021/09/16 12:59:21;;;;;;;3.00;2.10;;;;;;;;;;5136679;27;20527;-73
2021/09/16 13:01:49;;;;;;;4.47;2.10;;;;;;;;;;5136438;27;20439;-73
2021/09/16 13:04:16;;;;;;;2.50;2.07;;;;;;;;;;5136578;27;20476;-73
2021/09/16 13:06:44;;;;;;;2.43;1.80;;;;;;;;;;5136634;27;20443;-73
2021/09/16 13:09:26;;;;;;;3.53;2.07;;;;;;;;;;5136576;27;20467;-73
2021/09/16 13:12:11;;;;;;;3.50;2.10;;;;;;;;;;5135445;27;20443;-73
2021/09/16 13:14:39;;;;;;;2.20;1.90;;;;;;;;;;5136177;27;20439;-73
2021/09/16 13:17:06;;;;;;;3.30;2.30;;;;;;;;;;5136499;27;20530;-73
2021/09/16 13:19:34;;;;;;;2.93;2.00;;;;;;;;;;5136123;27;20436;-73
2021/09/16 13:22:01;;;;;;;4.70;2.30;;;;;;;;;;5136729;27;20527;-73
2021/09/16 13:24:28;;;;;;;6.47;2.30;;;;;;;;;;5136655;27;20482;-73
2021/09/16 13:26:55;;;;;;;6.47;2.00;;;;;;;;;;5136146;27;20534;-69
2021/09/16 13:29:23;;;;;;;4.53;1.77;;;;;;;;;;5136278;27;20440;-71
2021/09/16 13:31:51;;;;;;;6.60;2.00;;;;;;;;;;5135858;27;20447;-70
2021/09/16 13:34:18;;;;;;;2.50;2.00;;;;;;;;;;5136142;27;20441;-71
2021/09/16 13:36:46;;;;;;;3.90;1.50;;;;;;;;;;5136055;27;20771;-71
2021/09/16 13:39:13;;;;;;;4.20;2.00;;;;;;;;;;5135831;27;20439;-71
2021/09/16 13:41:40;;;;;;;2.50;2.00;;;;;;;;;;5135937;27;20525;-70
2021/09/16 13:44:07;;;;;;;3.37;2.13;;;;;;;;;;5135609;27;20492;-71
2021/09/16 13:46:38;;;;;;;9.10;2.40;;;;;;;;;;5135542;27;20443;-70
2021/09/16 13:49:06;;;;;;;4.20;1.90;;;;;;;;;;5135326;27;20433;-70
2021/09/16 13:51:34;;;;;;;2.70;2.20;;;;;;;;;;5135264;27;20451;-70
2021/09/16 13:54:01;;;;;;;2.73;1.63;;;;;;;;;;5134729;27;20451;-70
2021/09/16 13:56:29;;;;;;;5.87;2.00;;;;;;;;;;5134000;27;20440;-71
2021/09/16 13:58:56;;;;;;;3.10;1.60;;;;;;;;;;5134761;27;20446;-72
2021/09/16 14:01:24;;;;;;;1.70;1.60;;;;;;;;;;5134968;27;20440;-72
2021/09/16 14:03:51;;;;;;;2.90;1.50;;;;;;;;;;5135088;27;20476;-72
2021/09/16 14:06:20;;;;;;;1.50;1.40;;;;;;;;;;5134990;27;20447;-72
2021/09/16 14:08:47;;;;;;;1.97;1.87;;;;;;;;;;5135073;27;20444;-72
2021/09/16 14:11:15;;;;;;;3.07;1.77;;;;;;;;;;5135050;27;20546;-72
2021/09/16 14:13:42;;;;;;;3.40;1.63;;;;;;;;;;5135206;27;20453;-71
2021/09/16 14:16:09;;;;;;;5.17;1.80;;;;;;;;;;5135090;27;20459;-71
2021/09/16 14:18:37;;;;;;;3.47;1.40;;;;;;;;;;5135121;27;20447;-71
2021/09/16 14:21:05;;;;;;;7.20;1.67;;;;;;;;;;5134639;27;20515;-71
2021/09/16 14:23:33;;;;;;;4.23;1.60;;;;;;;;;;5133243;27;21033;-71
2021/09/16 14:26:00;;;;;;;2.10;1.90;;;;;;;;;;5134840;27;20437;-71
2021/09/16 14:28:28;;;;;;;2.90;1.63;;;;;;;;;;5135009;27;20988;-71
2021/09/16 14:31:00;;;;;;;3.50;2.30;;;;;;;;;;5135122;27;20434;-71
2021/09/16 14:33:27;;;;;;;3.37;1.83;;;;;;;;;;5133751;27;20445;-73
2021/09/16 14:35:54;;;;;;;2.50;1.80;;;;;;;;;;5133845;27;20430;-71
2021/09/16 14:38:22;;;;;;;2.53;1.73;;;;;;;;;;5134288;27;20519;-71
2021/09/16 14:40:50;;;;;;;1.40;1.30;;;;;;;;;;5134534;27;20448;-71
2021/09/16 14:43:18;;;;;;;1.50;1.37;;;;;;;;;;5134714;27;20468;-71
2021/09/16 14:45:45;;;;;;;5.67;2.20;;;;;;;;;;5134108;27;20472;-71